createdAt,value
2018-08-10T00:02:03.481Z,99.90
2018-08-10T00:04:32.816Z,99.90
2018-08-10T00:07:02.164Z,99.90
2018-08-10T00:09:31.457Z,99.90
2018-08-10T00:12:00.719Z,99.90
2018-08-10T00:14:30.057Z,99.90
2018-08-10T00:16:59.312Z,99.90
2018-08-10T00:19:28.639Z,99.90
2018-08-10T00:21:57.866Z,99.90
2018-08-10T00:24:27.636Z,99.90
2018-08-10T00:26:58.211Z,99.90
2018-08-10T00:29:27.464Z,99.90
2018-08-10T00:31:56.664Z,99.90
2018-08-10T00:34:25.934Z,99.90
2018-08-10T00:36:55.119Z,99.60
2018-08-10T00:39:24.565Z,99.80
2018-08-10T00:41:53.804Z,99.90
2018-08-10T00:44:23.147Z,99.70
2018-08-10T00:46:52.412Z,99.60
2018-08-10T00:49:21.626Z,99.20
2018-08-10T00:51:51.589Z,99.50
2018-08-10T00:54:20.815Z,99.40
2018-08-10T00:56:50.746Z,99.00
2018-08-10T00:59:19.974Z,98.90
2018-08-10T01:01:49.274Z,98.70
2018-08-10T01:04:18.567Z,99.00
2018-08-10T01:06:47.752Z,98.90
2018-08-10T01:09:17.055Z,98.50
2018-08-10T01:11:46.416Z,98.50
2018-08-10T01:14:15.634Z,98.60
2018-08-10T01:16:44.892Z,98.80
2018-08-10T01:19:14.231Z,98.30
2018-08-10T01:21:43.391Z,97.70
2018-08-10T01:24:12.618Z,97.70
2018-08-10T01:26:41.799Z,98.10
2018-08-10T01:29:11.023Z,98.40
2018-08-10T01:31:40.214Z,98.30
2018-08-10T01:34:09.506Z,98.30
2018-08-10T01:36:38.695Z,98.40
2018-08-10T01:39:09.853Z,98.10
2018-08-10T01:41:39.427Z,97.70
2018-08-10T01:44:09.474Z,97.50
2018-08-10T01:46:38.724Z,97.50
2018-08-10T01:49:08.055Z,97.20
2018-08-10T01:51:37.487Z,97.10
2018-08-10T01:54:06.749Z,97.20
2018-08-10T01:56:36.010Z,97.70
2018-08-10T01:59:05.275Z,97.10
2018-08-10T02:01:34.447Z,97.50
2018-08-10T02:04:03.722Z,97.90
2018-08-10T02:06:32.967Z,97.50
2018-08-10T02:09:02.362Z,97.30
2018-08-10T02:11:32.272Z,97.30
2018-08-10T02:14:01.485Z,97.30
2018-08-10T02:16:30.727Z,97.70
2018-08-10T02:18:59.938Z,97.50
2018-08-10T02:21:29.244Z,97.80
2018-08-10T02:23:58.509Z,97.90
2018-08-10T02:26:27.707Z,98.10
2018-08-10T02:28:56.935Z,98.40
2018-08-10T02:31:26.163Z,98.50
2018-08-10T02:33:55.554Z,98.20
2018-08-10T02:36:24.823Z,98.50
2018-08-10T02:38:54.047Z,98.50
2018-08-10T02:41:23.413Z,98.80
2018-08-10T02:43:52.636Z,99.20
2018-08-10T02:46:22.007Z,99.20
2018-08-10T02:48:52.286Z,99.30
2018-08-10T02:51:21.611Z,99.10
2018-08-10T02:53:50.800Z,99.10
2018-08-10T02:56:20.030Z,99.30
2018-08-10T02:58:49.318Z,99.20
2018-08-10T03:01:18.516Z,99.10
2018-08-10T03:03:47.863Z,99.00
2018-08-10T03:06:17.106Z,98.90
2018-08-10T03:08:46.266Z,98.70
2018-08-10T03:11:15.480Z,98.60
2018-08-10T03:13:44.706Z,98.70
2018-08-10T03:16:13.957Z,98.80
2018-08-10T03:18:43.947Z,99.10
2018-08-10T03:21:14.222Z,98.90
2018-08-10T03:23:43.427Z,98.80
2018-08-10T03:26:12.663Z,99.20
2018-08-10T03:28:41.891Z,99.10
2018-08-10T03:31:11.159Z,99.10
2018-08-10T03:33:40.442Z,99.30
2018-08-10T03:36:09.651Z,98.70
2018-08-10T03:38:40.956Z,98.90
2018-08-10T03:41:10.135Z,98.90
2018-08-10T03:43:39.370Z,99.10
2018-08-10T03:46:08.603Z,99.20
2018-08-10T03:48:37.812Z,99.10
2018-08-10T03:51:07.116Z,99.30
2018-08-10T03:53:36.347Z,99.40
2018-08-10T03:56:05.789Z,99.30
2018-08-10T03:58:35.187Z,99.20
2018-08-10T04:01:04.440Z,99.40
2018-08-10T04:03:33.666Z,99.70
2018-08-10T04:06:03.124Z,99.90
2018-08-10T04:08:33.078Z,99.90
2018-08-10T04:11:02.339Z,99.90
2018-08-10T04:13:31.544Z,99.90
2018-08-10T04:16:00.763Z,99.90
2018-08-10T04:18:29.996Z,99.90
2018-08-10T04:20:59.275Z,99.90
2018-08-10T04:23:29.551Z,99.90
2018-08-10T04:25:58.774Z,99.90
2018-08-10T04:28:28.055Z,99.90
2018-08-10T04:30:57.288Z,99.90
2018-08-10T04:33:26.816Z,99.90
2018-08-10T04:35:56.055Z,99.90
2018-08-10T04:38:25.281Z,99.90
2018-08-10T04:40:54.515Z,99.90
2018-08-10T04:43:23.846Z,99.90
2018-08-10T04:45:53.034Z,99.90
2018-08-10T04:48:22.332Z,99.90
2018-08-10T04:50:52.719Z,99.90
2018-08-10T04:53:21.986Z,99.90
2018-08-10T04:55:51.152Z,99.90
2018-08-10T04:58:20.423Z,99.90
2018-08-10T05:00:49.680Z,99.90
2018-08-10T05:03:18.920Z,99.90
2018-08-10T05:05:48.152Z,99.90
2018-08-10T05:08:17.451Z,99.90
2018-08-10T05:10:46.699Z,99.90
2018-08-10T05:13:15.974Z,99.90
2018-08-10T05:15:45.207Z,99.90
2018-08-10T05:18:14.475Z,99.90
2018-08-10T05:20:43.715Z,99.90
2018-08-10T05:23:13.558Z,99.90
2018-08-10T05:25:42.919Z,99.90
2018-08-10T05:28:12.726Z,99.90
2018-08-10T05:30:42.083Z,99.90
2018-08-10T05:33:12.031Z,99.90
2018-08-10T05:35:41.383Z,99.90
2018-08-10T05:38:10.717Z,99.90
2018-08-10T05:40:39.960Z,99.90
2018-08-10T05:43:09.307Z,99.90
2018-08-10T05:45:39.326Z,99.90
2018-08-10T05:48:08.748Z,99.80
2018-08-10T05:50:37.933Z,99.80
2018-08-10T05:53:07.926Z,99.70
2018-08-10T05:55:37.219Z,99.20
2018-08-10T05:58:06.514Z,98.80
2018-08-10T06:00:35.819Z,98.60
2018-08-10T06:03:05.472Z,98.50
2018-08-10T06:05:34.735Z,98.10
2018-08-10T06:08:03.998Z,98.10
2018-08-10T06:10:33.344Z,98.00
2018-08-10T06:13:02.606Z,97.90
2018-08-10T06:15:31.951Z,98.10
2018-08-10T06:18:01.087Z,97.60
2018-08-10T06:20:30.378Z,97.30
2018-08-10T06:22:59.687Z,96.70
2018-08-10T06:25:28.847Z,96.70
2018-08-10T06:27:58.108Z,96.30
2018-08-10T06:30:27.963Z,96.10
2018-08-10T06:32:57.394Z,96.20
2018-08-10T06:35:26.634Z,95.70
2018-08-10T06:37:55.871Z,96.00
2018-08-10T06:40:25.088Z,95.20
2018-08-10T06:42:54.300Z,95.20
2018-08-10T06:45:23.525Z,95.20
2018-08-10T06:47:52.787Z,95.30
2018-08-10T06:50:22.004Z,94.90
2018-08-10T06:52:51.256Z,94.80
2018-08-10T06:55:20.425Z,94.40
2018-08-10T06:57:49.637Z,94.20
2018-08-10T07:00:18.920Z,93.70
2018-08-10T07:02:48.147Z,94.10
2018-08-10T07:05:17.367Z,93.90
2018-08-10T07:07:47.319Z,93.40
2018-08-10T07:10:17.779Z,92.70
2018-08-10T07:12:48.232Z,91.90
2018-08-10T07:15:18.726Z,92.10
2018-08-10T07:17:48.180Z,91.70
2018-08-10T07:20:17.964Z,90.80
2018-08-10T07:22:47.363Z,90.40
2018-08-10T07:25:18.348Z,90.30
2018-08-10T07:27:47.777Z,90.30
2018-08-10T07:30:17.872Z,90.00
2018-08-10T07:32:47.447Z,90.00
2018-08-10T07:35:17.377Z,88.90
2018-08-10T07:37:48.566Z,88.50
2018-08-10T07:40:20.316Z,88.50
2018-08-10T07:42:50.812Z,87.80
2018-08-10T07:45:24.263Z,88.00
2018-08-10T07:47:54.800Z,86.80
2018-08-10T07:50:24.831Z,86.00
2018-08-10T07:52:54.901Z,87.40
2018-08-10T07:55:24.231Z,86.30
2018-08-10T07:57:54.536Z,87.20
2018-08-10T08:00:24.739Z,88.30
2018-08-10T08:02:54.936Z,89.20
2018-08-10T08:05:26.624Z,87.40
2018-08-10T08:07:57.182Z,85.70
2018-08-10T08:10:27.129Z,84.00
2018-08-10T08:12:57.013Z,85.00
2018-08-10T08:15:27.184Z,84.40
2018-08-10T08:17:57.165Z,84.80
2018-08-10T08:20:26.994Z,84.70
2018-08-10T08:23:01.909Z,83.30
2018-08-10T08:25:33.078Z,82.70
2018-08-10T08:28:03.025Z,82.00
2018-08-10T08:30:33.738Z,80.30
2018-08-10T08:33:05.259Z,79.50
2018-08-10T08:35:35.282Z,77.60
2018-08-10T08:38:16.240Z,74.60
2018-08-10T08:40:51.830Z,75.30
2018-08-10T08:43:39.372Z,74.00
2018-08-10T08:46:10.992Z,74.20
2018-08-10T08:48:54.294Z,72.40
2018-08-10T08:51:25.716Z,70.80
2018-08-10T08:54:07.315Z,69.60
2018-08-10T08:56:45.817Z,69.70
2018-08-10T08:59:15.808Z,68.30
2018-08-10T09:01:45.620Z,67.70
2018-08-10T09:04:29.639Z,67.40
2018-08-10T09:07:00.524Z,67.10
2018-08-10T09:09:39.126Z,67.60
2018-08-10T09:12:08.684Z,69.40
2018-08-10T09:14:47.236Z,72.10
2018-08-10T09:17:17.797Z,74.20
2018-08-10T09:19:47.362Z,70.50
2018-08-10T09:22:18.188Z,71.10
2018-08-10T09:24:48.029Z,73.60
2018-08-10T09:27:17.886Z,69.70
2018-08-10T09:29:47.992Z,67.50
2018-08-10T09:32:18.153Z,65.80
2018-08-10T09:34:49.820Z,64.80
2018-08-10T09:37:19.923Z,64.40
2018-08-10T09:39:49.796Z,63.40
2018-08-10T09:42:19.440Z,64.00
2018-08-10T09:44:53.768Z,65.50
2018-08-10T09:47:23.568Z,65.60
2018-08-10T09:49:53.110Z,63.50
2018-08-10T09:52:22.854Z,64.50
2018-08-10T09:55:14.136Z,63.50
2018-08-10T09:57:43.859Z,64.30
2018-08-10T10:00:18.671Z,60.60
2018-08-10T10:02:53.669Z,59.60
2018-08-10T10:05:25.270Z,59.30
2018-08-10T10:07:55.237Z,58.20
2018-08-10T10:10:25.348Z,58.40
2018-08-10T10:12:55.445Z,58.10
2018-08-10T10:15:25.219Z,59.40
2018-08-10T10:17:56.887Z,59.40
2018-08-10T10:20:26.609Z,60.40
2018-08-10T10:22:57.262Z,58.90
2018-08-10T10:25:27.255Z,60.30
2018-08-10T10:27:57.460Z,61.80
2018-08-10T10:30:27.255Z,62.60
2018-08-10T10:32:57.618Z,63.60
2018-08-10T10:35:27.389Z,64.50
2018-08-10T10:37:57.345Z,64.50
2018-08-10T10:40:27.180Z,63.70
2018-08-10T10:42:56.976Z,65.10
2018-08-10T10:45:27.241Z,63.70
2018-08-10T10:47:57.618Z,63.70
2018-08-10T10:50:30.816Z,63.10
2018-08-10T10:53:01.058Z,60.70
2018-08-10T10:55:30.955Z,60.20
2018-08-10T10:58:01.089Z,60.50
2018-08-10T11:00:31.353Z,61.60
2018-08-10T11:03:01.640Z,62.40
2018-08-10T11:05:31.345Z,64.20
2018-08-10T11:08:01.069Z,64.00
2018-08-10T11:10:31.532Z,64.00
2018-08-10T11:13:02.480Z,62.60
2018-08-10T11:15:32.743Z,63.00
2018-08-10T11:18:02.695Z,63.40
2018-08-10T11:20:33.561Z,63.50
2018-08-10T11:23:03.490Z,64.80
2018-08-10T11:25:36.234Z,65.00
2018-08-10T11:28:06.399Z,65.20
2018-08-10T11:30:35.937Z,65.00
2018-08-10T11:33:09.359Z,63.70
2018-08-10T11:35:40.495Z,62.00
2018-08-10T11:38:11.995Z,62.10
2018-08-10T11:40:42.501Z,62.70
2018-08-10T11:43:12.792Z,62.40
2018-08-10T11:45:42.582Z,61.40
2018-08-10T11:48:12.489Z,58.90
2018-08-10T11:50:42.615Z,58.30
2018-08-10T11:53:14.155Z,54.00
2018-08-10T11:55:43.683Z,52.30
2018-08-10T11:58:13.802Z,52.60
2018-08-10T12:00:44.913Z,52.90
2018-08-10T12:03:14.847Z,51.70
2018-08-10T12:05:45.672Z,50.80
2018-08-10T12:08:16.144Z,50.10
2018-08-10T12:10:45.759Z,50.70
2018-08-10T12:13:16.323Z,51.20
2018-08-10T12:15:46.480Z,48.50
2018-08-10T12:18:16.026Z,47.60
2018-08-10T12:20:45.751Z,47.40
2018-08-10T12:23:15.961Z,46.80
2018-08-10T12:25:45.912Z,45.90
2018-08-10T12:28:15.389Z,44.80
2018-08-10T12:30:45.577Z,45.30
2018-08-10T12:33:15.082Z,46.60
2018-08-10T12:35:44.733Z,46.40
2018-08-10T12:38:14.890Z,45.40
2018-08-10T12:40:46.049Z,44.20
2018-08-10T12:43:17.155Z,44.10
2018-08-10T12:45:47.923Z,44.90
2018-08-10T12:48:18.248Z,46.80
2018-08-10T12:50:49.129Z,48.10
2018-08-10T12:53:19.082Z,46.70
2018-08-10T12:55:48.849Z,46.90
2018-08-10T12:58:18.532Z,47.20
2018-08-10T13:00:48.333Z,48.40
2018-08-10T13:03:18.341Z,47.50
2018-08-10T13:05:49.888Z,46.00
2018-08-10T13:08:19.535Z,46.20
2018-08-10T13:10:49.645Z,44.10
2018-08-10T13:13:21.750Z,43.60
2018-08-10T13:15:52.537Z,43.60
2018-08-10T13:18:22.186Z,43.70
2018-08-10T13:20:54.725Z,43.30
2018-08-10T13:23:24.829Z,42.30
2018-08-10T13:25:55.679Z,40.80
2018-08-10T13:28:26.428Z,41.20
2018-08-10T13:30:57.387Z,40.20
2018-08-10T13:33:28.047Z,40.30
2018-08-10T13:35:58.396Z,41.00
2018-08-10T13:38:28.092Z,40.80
2018-08-10T13:40:57.879Z,40.90
2018-08-10T13:43:28.844Z,40.60
2018-08-10T13:45:59.001Z,40.60
2018-08-10T13:48:29.736Z,40.10
2018-08-10T13:51:00.696Z,38.70
2018-08-10T13:53:30.970Z,38.20
2018-08-10T13:56:01.777Z,38.10
2018-08-10T13:58:32.179Z,38.80
2018-08-10T14:01:02.420Z,39.20
2018-08-10T14:03:32.326Z,40.10
2018-08-10T14:06:01.905Z,39.60
2018-08-10T14:08:31.646Z,40.30
2018-08-10T14:11:01.509Z,40.70
2018-08-10T14:13:31.377Z,40.90
2018-08-10T14:16:01.520Z,40.20
2018-08-10T14:18:32.044Z,40.50
2018-08-10T14:21:01.957Z,39.70
2018-08-10T14:23:31.620Z,37.70
2018-08-10T14:26:01.905Z,38.50
2018-08-10T14:28:31.699Z,38.20
2018-08-10T14:31:01.369Z,38.10
2018-08-10T14:33:31.202Z,38.40
2018-08-10T14:36:02.126Z,39.80
2018-08-10T14:38:31.780Z,40.90
2018-08-10T14:41:01.399Z,39.80
2018-08-10T14:43:31.057Z,39.50
2018-08-10T14:46:01.328Z,38.10
2018-08-10T14:48:31.504Z,38.40
2018-08-10T14:51:01.111Z,38.40
2018-08-10T14:53:31.727Z,38.20
2018-08-10T14:56:02.576Z,37.80
2018-08-10T14:58:32.045Z,38.60
2018-08-10T15:01:01.760Z,38.60
2018-08-10T15:03:31.735Z,39.30
2018-08-10T15:06:01.517Z,40.50
2018-08-10T15:08:31.276Z,39.40
2018-08-10T15:11:01.137Z,39.60
2018-08-10T15:13:31.146Z,40.20
2018-08-10T15:16:01.711Z,40.70
2018-08-10T15:18:31.546Z,40.10
2018-08-10T15:21:01.753Z,40.60
2018-08-10T15:23:31.652Z,39.90
2018-08-10T15:26:02.094Z,40.20
2018-08-10T15:28:32.927Z,40.60
2018-08-10T15:31:02.675Z,41.10
2018-08-10T15:33:33.883Z,40.70
2018-08-10T15:36:04.392Z,40.70
2018-08-10T15:38:34.451Z,40.90
2018-08-10T15:41:04.262Z,41.10
2018-08-10T15:43:33.881Z,41.70
2018-08-10T15:46:03.804Z,41.70
2018-08-10T15:48:35.788Z,42.90
2018-08-10T15:51:08.273Z,42.30
2018-08-10T15:53:37.843Z,43.10
2018-08-10T15:56:07.349Z,43.20
2018-08-10T15:58:37.458Z,43.90
2018-08-10T16:01:07.369Z,44.60
2018-08-10T16:03:36.825Z,44.50
2018-08-10T16:06:07.052Z,43.90
2018-08-10T16:08:36.464Z,44.20
2018-08-10T16:11:06.133Z,43.90
2018-08-10T16:13:35.505Z,43.30
2018-08-10T16:16:04.951Z,44.10
2018-08-10T16:18:34.512Z,44.20
2018-08-10T16:21:04.010Z,44.90
2018-08-10T16:23:33.964Z,44.90
2018-08-10T16:26:03.709Z,45.70
2018-08-10T16:28:33.585Z,44.70
2018-08-10T16:31:03.116Z,43.90
2018-08-10T16:33:32.607Z,43.20
2018-08-10T16:36:02.604Z,43.10
2018-08-10T16:38:33.297Z,43.20
2018-08-10T16:41:02.981Z,43.70
2018-08-10T16:43:32.440Z,43.80
2018-08-10T16:46:01.857Z,43.20
2018-08-10T16:48:31.462Z,42.70
2018-08-10T16:51:00.801Z,42.70
2018-08-10T16:53:30.213Z,43.00
2018-08-10T16:56:00.167Z,43.00
2018-08-10T16:58:29.732Z,43.20
2018-08-10T17:00:59.280Z,43.50
2018-08-10T17:03:29.299Z,43.70
2018-08-10T17:05:58.691Z,44.10
2018-08-10T17:08:28.215Z,44.60
2018-08-10T17:10:58.302Z,44.50
2018-08-10T17:13:28.879Z,44.70
2018-08-10T17:15:59.538Z,44.50
2018-08-10T17:18:29.077Z,44.60
2018-08-10T17:20:58.736Z,45.40
2018-08-10T17:23:28.318Z,45.00
2018-08-10T17:25:58.287Z,45.20
2018-08-10T17:28:28.248Z,45.40
2018-08-10T17:30:58.789Z,46.00
2018-08-10T17:33:28.406Z,45.30
2018-08-10T17:35:58.108Z,45.60
2018-08-10T17:38:27.542Z,45.90
2018-08-10T17:40:57.082Z,46.10
2018-08-10T17:43:27.048Z,46.40
2018-08-10T17:45:56.459Z,46.20
2018-08-10T17:48:25.952Z,46.40
2018-08-10T17:50:55.984Z,46.90
2018-08-10T17:53:25.836Z,47.10
2018-08-10T17:55:55.212Z,47.10
2018-08-10T17:58:24.637Z,47.40
2018-08-10T18:00:54.771Z,47.20
2018-08-10T18:03:24.149Z,47.20
2018-08-10T18:05:53.529Z,47.30
2018-08-10T18:08:23.060Z,47.60
2018-08-10T18:10:53.593Z,47.60
2018-08-10T18:13:22.991Z,47.80
2018-08-10T18:15:52.488Z,48.00
2018-08-10T18:18:21.872Z,48.30
2018-08-10T18:20:51.273Z,48.30
2018-08-10T18:23:20.659Z,48.40
2018-08-10T18:25:50.027Z,48.50
2018-08-10T18:28:19.786Z,48.60
2018-08-10T18:30:49.189Z,49.00
2018-08-10T18:33:18.594Z,48.90
2018-08-10T18:35:47.957Z,49.00
2018-08-10T18:38:17.363Z,49.40
2018-08-10T18:40:46.998Z,49.60
2018-08-10T18:43:16.454Z,49.60
2018-08-10T18:45:45.913Z,49.90
2018-08-10T18:48:15.484Z,50.10
2018-08-10T18:50:45.018Z,50.00
2018-08-10T18:53:14.575Z,50.30
2018-08-10T18:55:44.063Z,50.50
2018-08-10T18:58:13.547Z,50.70
2018-08-10T19:00:42.992Z,50.90
2018-08-10T19:03:12.391Z,51.00
2018-08-10T19:05:42.067Z,51.10
2018-08-10T19:08:11.609Z,51.10
2018-08-10T19:10:41.321Z,51.40
2018-08-10T19:13:11.259Z,51.40
2018-08-10T19:15:40.869Z,51.60
2018-08-10T19:18:10.356Z,51.80
2018-08-10T19:20:40.085Z,51.90
2018-08-10T19:23:09.435Z,52.20
2018-08-10T19:25:38.817Z,52.50
2018-08-10T19:28:08.795Z,52.60
2018-08-10T19:30:38.432Z,52.70
2018-08-10T19:33:07.914Z,52.80
2018-08-10T19:35:37.562Z,53.00
2018-08-10T19:38:07.409Z,53.20
2018-08-10T19:40:36.834Z,53.30
2018-08-10T19:43:06.924Z,53.60
2018-08-10T19:45:36.435Z,54.20
2018-08-10T19:48:06.195Z,54.30
2018-08-10T19:50:35.865Z,54.50
2018-08-10T19:53:05.412Z,54.50
2018-08-10T19:55:35.217Z,54.90
2018-08-10T19:58:04.785Z,54.90
2018-08-10T20:00:35.104Z,54.90
2018-08-10T20:03:04.604Z,55.30
2018-08-10T20:05:34.545Z,55.50
2018-08-10T20:08:04.627Z,55.80
2018-08-10T20:10:34.128Z,55.70
2018-08-10T20:13:03.888Z,55.80
2018-08-10T20:15:34.185Z,56.20
2018-08-10T20:18:03.900Z,56.40
2018-08-10T20:20:33.404Z,56.60
2018-08-10T20:23:02.817Z,56.70
2018-08-10T20:25:33.200Z,56.90
2018-08-10T20:28:02.654Z,56.90
2018-08-10T20:30:32.953Z,57.20
2018-08-10T20:33:02.452Z,57.30
2018-08-10T20:35:32.739Z,57.50
2018-08-10T20:38:02.349Z,58.00
2018-08-10T20:40:31.938Z,58.10
2018-08-10T20:43:02.132Z,58.30
2018-08-10T20:45:31.594Z,58.30
2018-08-10T20:48:01.158Z,58.10
2018-08-10T20:50:31.692Z,58.30
2018-08-10T20:53:01.247Z,58.70
2018-08-10T20:55:31.471Z,58.50
2018-08-10T20:58:01.775Z,58.40
2018-08-10T21:00:32.016Z,58.30
2018-08-10T21:03:02.780Z,58.40
2018-08-10T21:05:32.336Z,58.60
2018-08-10T21:08:02.221Z,58.50
2018-08-10T21:10:33.047Z,58.40
2018-08-10T21:13:02.672Z,58.60
2018-08-10T21:15:32.406Z,58.80
2018-08-10T21:18:02.396Z,58.80
2018-08-10T21:20:31.787Z,58.70
2018-08-10T21:23:02.551Z,58.50
2018-08-10T21:25:32.872Z,58.60
2018-08-10T21:28:02.730Z,58.50
2018-08-10T21:30:33.724Z,58.60
2018-08-10T21:33:03.217Z,58.80
2018-08-10T21:35:33.321Z,59.00
2018-08-10T21:38:02.863Z,59.00
2018-08-10T21:40:32.517Z,59.20
2018-08-10T21:43:02.583Z,59.10
2018-08-10T21:45:31.981Z,58.80
2018-08-10T21:48:01.825Z,59.20
2018-08-10T21:50:31.384Z,59.20
2018-08-10T21:53:00.883Z,59.30
2018-08-10T21:55:30.600Z,59.60
2018-08-10T21:58:00.686Z,59.50
2018-08-10T22:00:56.532Z,59.50
2018-08-10T22:03:26.330Z,59.90
2018-08-10T22:05:56.381Z,60.10
2018-08-10T22:08:26.035Z,60.40
2018-08-10T22:10:56.545Z,60.50
2018-08-10T22:13:32.384Z,60.70
2018-08-10T22:16:07.075Z,61.00
2018-08-10T22:18:41.727Z,61.60
2018-08-10T22:21:12.977Z,61.70
2018-08-10T22:23:43.556Z,61.90
2018-08-10T22:26:13.502Z,62.10
2018-08-10T22:28:43.308Z,62.50
2018-08-10T22:31:12.705Z,62.70
2018-08-10T22:33:42.822Z,62.80
2018-08-10T22:36:12.382Z,63.00
2018-08-10T22:38:41.968Z,63.00
2018-08-10T22:41:11.430Z,63.40
2018-08-10T22:43:41.290Z,63.70
2018-08-10T22:46:12.191Z,63.90
2018-08-10T22:48:41.732Z,64.10
2018-08-10T22:51:11.299Z,64.10
2018-08-10T22:53:40.792Z,64.50
2018-08-10T22:56:10.448Z,64.70
2018-08-10T22:58:39.792Z,64.90
2018-08-10T23:01:10.278Z,65.30
2018-08-10T23:03:39.860Z,65.80
2018-08-10T23:06:09.416Z,65.70
2018-08-10T23:08:39.137Z,65.90
2018-08-10T23:11:09.544Z,66.20
2018-08-10T23:13:39.950Z,66.20
2018-08-10T23:16:09.636Z,66.70
2018-08-10T23:18:39.147Z,66.80
2018-08-10T23:21:09.150Z,66.60
2018-08-10T23:23:39.011Z,66.50
2018-08-10T23:26:09.242Z,66.40
2018-08-10T23:28:40.369Z,66.50
2018-08-10T23:31:09.889Z,66.80
2018-08-10T23:33:39.733Z,66.80
2018-08-10T23:36:09.253Z,67.10
2018-08-10T23:38:38.758Z,67.20
2018-08-10T23:41:09.024Z,67.10
2018-08-10T23:43:38.844Z,67.10
2018-08-10T23:46:08.303Z,67.30
2018-08-10T23:48:38.207Z,67.80
2018-08-10T23:51:07.763Z,67.80
2018-08-10T23:53:37.926Z,68.00
2018-08-10T23:56:07.392Z,68.30
2018-08-10T23:58:37.824Z,68.20
